Time;durP1;ratioP1;P1;durP2;ratioP2;P2;SDS_P1;SDS_P2;PMS_P1;PMS_P2;Temp;Humidity;BMP_temperature;BMP_pressure;BME280_temperature;BME280_humidity;BME280_pressure;Samples;Min_cycle;Max_cycle;Signal;HPM_P1;HPM_P2
2023/03/09 00:00:11;;;;;;;24.13;5.07;;;18.30;50.30;;;;;;4996371;28;20361;-70
2023/03/09 00:02:38;;;;;;;18.98;4.38;;;18.20;50.20;;;;;;4996221;28;20221;-71
2023/03/09 00:05:07;;;;;;;16.92;4.50;;;18.20;50.30;;;;;;4996507;28;20230;-71
2023/03/09 00:07:34;;;;;;;21.42;4.70;;;18.20;50.30;;;;;;4996231;28;20194;-71
2023/03/09 00:10:03;;;;;;;28.30;4.85;;;18.20;50.30;;;;;;4978411;28;20269;-71
2023/03/09 00:12:30;;;;;;;23.85;5.13;;;18.20;50.30;;;;;;4995764;28;20237;-71
2023/03/09 00:14:57;;;;;;;20.42;4.78;;;18.20;50.30;;;;;;4995919;28;20692;-71
2023/03/09 00:17:25;;;;;;;22.23;4.43;;;18.20;50.30;;;;;;4995994;28;20194;-71
2023/03/09 00:20:00;;;;;;;23.40;5.60;;;18.20;50.30;;;;;;4996197;28;20218;-71
2023/03/09 00:22:27;;;;;;;18.23;4.20;;;18.20;50.30;;;;;;4995912;28;20217;-70
2023/03/09 00:24:56;;;;;;;25.95;5.13;;;18.20;50.30;;;;;;4996199;28;20283;-70
2023/03/09 00:27:24;;;;;;;18.73;4.38;;;18.20;50.30;;;;;;4994373;28;20671;-70
2023/03/09 00:29:51;;;;;;;20.88;4.50;;;18.20;50.40;;;;;;4995303;28;20269;-70
2023/03/09 00:32:18;;;;;;;16.88;4.53;;;18.20;50.30;;;;;;4995790;28;20724;-69
2023/03/09 00:34:46;;;;;;;21.52;4.75;;;18.20;50.40;;;;;;4995422;28;20708;-71
2023/03/09 00:37:14;;;;;;;27.20;5.25;;;18.10;50.20;;;;;;4995676;28;20201;-71
2023/03/09 00:39:41;;;;;;;18.67;3.95;;;18.20;50.30;;;;;;4995692;28;20218;-71
2023/03/09 00:42:08;;;;;;;20.67;4.70;;;18.10;50.20;;;;;;4995202;28;20634;-71
2023/03/09 00:44:36;;;;;;;20.88;4.93;;;18.10;50.20;;;;;;4995298;28;20264;-71
2023/03/09 00:47:04;;;;;;;21.90;4.60;;;18.10;50.30;;;;;;4995140;28;20194;-71
2023/03/09 00:49:31;;;;;;;23.88;5.80;;;18.10;50.30;;;;;;4995376;28;20280;-69
2023/03/09 00:51:58;;;;;;;18.30;4.45;;;18.10;50.30;;;;;;4995136;28;20607;-71
2023/03/09 00:54:25;;;;;;;18.92;4.40;;;18.10;50.30;;;;;;4995075;28;20217;-70
2023/03/09 00:56:52;;;;;;;20.40;4.57;;;18.10;50.30;;;;;;4995015;28;20194;-70
2023/03/09 00:59:19;;;;;;;19.50;4.53;;;18.10;50.30;;;;;;4995085;28;20265;-69
2023/03/09 01:01:47;;;;;;;18.48;4.57;;;18.10;50.40;;;;;;4976864;28;20660;-70
2023/03/09 01:04:14;;;;;;;19.23;4.32;;;18.10;50.30;;;;;;4994999;28;20638;-70
2023/03/09 01:06:41;;;;;;;22.48;4.35;;;18.10;50.30;;;;;;4994719;28;20202;-71
2023/03/09 01:09:09;;;;;;;14.77;3.90;;;18.10;50.40;;;;;;4993616;28;20233;-70
2023/03/09 01:11:37;;;;;;;22.02;4.43;;;18.10;50.40;;;;;;4994707;28;20198;-70
2023/03/09 01:14:05;;;;;;;20.92;4.57;;;18.10;50.40;;;;;;4994981;28;20217;-70
2023/03/09 01:16:32;;;;;;;22.63;4.47;;;18.10;50.40;;;;;;4994914;28;20190;-70
2023/03/09 01:19:00;;;;;;;25.08;5.43;;;18.10;50.40;;;;;;4994550;28;20217;-70
2023/03/09 01:21:27;;;;;;;23.15;4.85;;;18.10;50.50;;;;;;4994565;28;20607;-70
2023/03/09 01:23:54;;;;;;;22.75;4.78;;;18.10;50.50;;;;;;4994729;28;20361;-70
2023/03/09 01:26:21;;;;;;;22.80;4.75;;;18.10;50.50;;;;;;4994733;28;20240;-70
2023/03/09 01:28:49;;;;;;;16.85;4.25;;;18.10;50.50;;;;;;4994376;28;20249;-70
2023/03/09 01:31:16;;;;;;;22.98;4.93;;;18.00;50.40;;;;;;4994657;28;20280;-70
2023/03/09 01:33:44;;;;;;;22.25;4.28;;;18.10;50.50;;;;;;4994243;28;20186;-69
2023/03/09 01:36:16;;;;;;;20.02;4.32;;;18.00;50.40;;;;;;4994282;28;20190;-69
2023/03/09 01:38:44;;;;;;;17.50;4.85;;;18.00;50.40;;;;;;4994780;28;20241;-69
2023/03/09 01:41:11;;;;;;;20.40;4.55;;;18.00;50.50;;;;;;4993650;28;20189;-69
2023/03/09 01:43:40;;;;;;;24.08;4.63;;;18.10;50.50;;;;;;4993137;28;20276;-70
2023/03/09 01:46:46;;;;;;;22.92;4.35;;;18.00;50.40;;;;;;4994442;28;20277;-69
2023/03/09 01:49:22;;;;;;;19.38;4.63;;;18.00;50.50;;;;;;4985852;28;20691;-69
2023/03/09 01:51:57;;;;;;;25.67;5.00;;;18.00;50.50;;;;;;4994359;28;20190;-69
2023/03/09 01:54:28;;;;;;;26.27;5.22;;;18.10;50.60;;;;;;4994170;28;20229;-68
2023/03/09 01:56:58;;;;;;;21.17;4.32;;;18.00;50.50;;;;;;4993816;28;20194;-69
2023/03/09 01:59:28;;;;;;;18.83;4.25;;;18.00;50.60;;;;;;4994598;28;20276;-71
2023/03/09 02:01:55;;;;;;;20.65;4.90;;;18.00;50.60;;;;;;4990021;28;20617;-71
2023/03/09 02:04:28;;;;;;;17.88;4.65;;;18.00;50.60;;;;;;5002262;28;20288;-71
2023/03/09 02:06:57;;;;;;;22.63;4.88;;;18.00;50.60;;;;;;4992415;28;20202;-71
2023/03/09 02:09:29;;;;;;;23.73;4.70;;;18.00;50.70;;;;;;4993624;28;20296;-71
2023/03/09 02:11:57;;;;;;;28.40;5.38;;;18.00;50.60;;;;;;4993567;28;20244;-70
2023/03/09 02:14:25;;;;;;;24.92;4.93;;;18.00;50.60;;;;;;4993627;28;20230;-71
2023/03/09 02:16:52;;;;;;;22.27;4.47;;;18.00;50.70;;;;;;4993357;28;20248;-71
2023/03/09 02:19:31;;;;;;;24.30;5.03;;;17.90;50.60;;;;;;4993779;28;20269;-71
2023/03/09 02:22:00;;;;;;;18.90;4.50;;;17.90;50.50;;;;;;4993494;28;20611;-71
2023/03/09 02:24:37;;;;;;;21.15;4.55;;;17.90;50.50;;;;;;4993436;28;20300;-71
2023/03/09 02:27:13;;;;;;;24.10;4.93;;;17.90;50.60;;;;;;4993628;28;20193;-71
2023/03/09 02:29:40;;;;;;;25.30;5.00;;;17.90;50.60;;;;;;4993767;28;20221;-70
2023/03/09 02:32:07;;;;;;;21.90;4.93;;;17.90;50.60;;;;;;4993667;28;20222;-71
2023/03/09 02:34:34;;;;;;;26.58;5.07;;;17.90;50.60;;;;;;4993325;28;20636;-70
2023/03/09 02:37:01;;;;;;;21.85;4.28;;;17.90;50.60;;;;;;4993010;28;20190;-71
2023/03/09 02:39:35;;;;;;;23.45;5.03;;;17.90;50.60;;;;;;4993231;28;20782;-70
2023/03/09 02:42:05;;;;;;;17.92;4.38;;;17.90;50.70;;;;;;4993378;28;20197;-71
2023/03/09 02:44:35;;;;;;;26.88;5.38;;;17.90;50.60;;;;;;4993033;28;20291;-72
2023/03/09 02:47:02;;;;;;;22.52;4.50;;;17.90;50.70;;;;;;4993371;28;20253;-70
2023/03/09 02:49:29;;;;;;;22.33;5.20;;;17.90;50.70;;;;;;4993321;28;20226;-71
2023/03/09 02:51:56;;;;;;;17.98;4.70;;;17.90;50.70;;;;;;4993143;28;20198;-71
2023/03/09 02:54:24;;;;;;;22.90;4.88;;;17.90;50.70;;;;;;4992390;28;20260;-70
2023/03/09 02:56:51;;;;;;;23.42;4.55;;;17.90;50.80;;;;;;4993214;28;20194;-71
2023/03/09 02:59:18;;;;;;;21.80;4.90;;;17.90;50.70;;;;;;4992772;28;20222;-70
2023/03/09 03:01:46;;;;;;;21.95;4.53;;;17.90;50.80;;;;;;4991999;28;20240;-71
2023/03/09 03:04:14;;;;;;;23.67;4.85;;;17.90;50.70;;;;;;4992859;28;20233;-71
2023/03/09 03:06:41;;;;;;;22.00;5.05;;;17.90;50.70;;;;;;4992664;28;20221;-71
2023/03/09 03:09:08;;;;;;;21.98;5.35;;;17.90;50.70;;;;;;4992418;28;20241;-71
2023/03/09 03:11:35;;;;;;;27.10;5.18;;;17.90;50.70;;;;;;4992955;28;20202;-70
2023/03/09 03:14:02;;;;;;;25.25;5.65;;;17.90;50.70;;;;;;4992668;28;20619;-71
2023/03/09 03:16:29;;;;;;;24.17;4.88;;;17.90;50.80;;;;;;4991471;28;20213;-70
2023/03/09 03:18:57;;;;;;;22.55;4.97;;;17.90;50.70;;;;;;4992643;28;20214;-71
2023/03/09 03:21:24;;;;;;;26.20;5.38;;;17.90;50.80;;;;;;4992938;28;20253;-71
2023/03/09 03:23:52;;;;;;;21.35;5.65;;;17.90;50.80;;;;;;4992842;28;20281;-71
2023/03/09 03:26:19;;;;;;;22.60;4.53;;;17.90;50.70;;;;;;4992954;28;20244;-70
2023/03/09 03:28:46;;;;;;;21.67;5.05;;;17.90;50.80;;;;;;4991617;28;20190;-71
2023/03/09 03:31:13;;;;;;;24.38;5.15;;;17.90;50.80;;;;;;4992901;28;20190;-70
2023/03/09 03:33:40;;;;;;;19.50;4.70;;;17.80;50.70;;;;;;4992580;28;20653;-70
2023/03/09 03:36:09;;;;;;;21.88;4.82;;;17.90;50.80;;;;;;4992563;28;20194;-71
2023/03/09 03:38:36;;;;;;;22.77;4.30;;;17.80;50.70;;;;;;4992376;28;20248;-70
2023/03/09 03:41:04;;;;;;;21.80;5.30;;;17.90;50.80;;;;;;4992684;28;20189;-71
2023/03/09 03:43:31;;;;;;;23.48;4.55;;;17.90;50.80;;;;;;4992362;28;20229;-70
2023/03/09 03:45:58;;;;;;;20.95;4.90;;;17.90;50.80;;;;;;4992733;28;20225;-71
2023/03/09 03:48:25;;;;;;;22.60;5.05;;;17.80;50.80;;;;;;4992622;28;20190;-71
2023/03/09 03:50:52;;;;;;;24.42;5.38;;;17.80;50.70;;;;;;4992550;28;20288;-71
2023/03/09 03:53:20;;;;;;;18.17;4.53;;;17.80;50.70;;;;;;4992700;28;20198;-70
2023/03/09 03:55:47;;;;;;;18.42;5.07;;;17.80;50.80;;;;;;4992651;28;20236;-71
2023/03/09 03:58:14;;;;;;;22.50;4.82;;;17.80;50.70;;;;;;4992669;28;20249;-70
2023/03/09 04:00:42;;;;;;;21.38;4.97;;;17.80;50.80;;;;;;4992807;28;20221;-70
2023/03/09 04:03:09;;;;;;;19.92;5.18;;;17.80;50.80;;;;;;4992257;28;20210;-70
2023/03/09 04:05:36;;;;;;;18.48;4.40;;;17.80;50.80;;;;;;4995645;28;20624;-70
2023/03/09 04:08:03;;;;;;;26.67;4.63;;;17.80;50.80;;;;;;4996037;28;20197;-70
2023/03/09 04:10:32;;;;;;;22.35;5.13;;;17.80;50.90;;;;;;4996273;28;20225;-71
2023/03/09 04:13:00;;;;;;;19.70;4.95;;;17.80;50.90;;;;;;4996444;28;20596;-70
2023/03/09 04:15:27;;;;;;;22.38;5.20;;;17.80;50.80;;;;;;4995671;28;20276;-71
2023/03/09 04:17:54;;;;;;;20.52;4.78;;;17.80;50.90;;;;;;4996061;28;20590;-71
2023/03/09 04:20:21;;;;;;;18.17;4.85;;;17.80;50.90;;;;;;4995941;28;20276;-71
2023/03/09 04:22:49;;;;;;;17.40;4.55;;;17.80;50.90;;;;;;4995900;28;20186;-69
2023/03/09 04:25:16;;;;;;;19.08;4.95;;;17.80;51.00;;;;;;4994340;28;20241;-71
2023/03/09 04:27:45;;;;;;;16.48;4.00;;;17.80;51.00;;;;;;4995495;28;20532;-70
2023/03/09 04:30:13;;;;;;;18.23;4.75;;;17.80;51.00;;;;;;4995724;28;20269;-69
2023/03/09 04:32:40;;;;;;;22.13;4.88;;;17.80;51.00;;;;;;4995759;28;20206;-70
2023/03/09 04:35:09;;;;;;;21.08;4.68;;;17.80;51.00;;;;;;4995286;28;20577;-69
2023/03/09 04:37:36;;;;;;;18.42;4.43;;;17.70;50.90;;;;;;4995628;28;20190;-69
2023/03/09 04:40:05;;;;;;;21.05;4.65;;;17.80;51.00;;;;;;4995589;28;20275;-68
2023/03/09 04:42:32;;;;;;;20.83;4.75;;;17.80;51.00;;;;;;4995278;28;20198;-69
2023/03/09 04:45:00;;;;;;;22.45;4.63;;;17.80;51.00;;;;;;4994361;28;20233;-69
2023/03/09 04:47:27;;;;;;;20.10;4.85;;;17.70;51.00;;;;;;4995190;28;20207;-68
2023/03/09 04:49:55;;;;;;;23.77;5.40;;;17.80;51.10;;;;;;4995543;28;20229;-69
2023/03/09 04:52:22;;;;;;;19.10;4.45;;;17.80;51.10;;;;;;4995515;28;20194;-69
2023/03/09 04:54:49;;;;;;;20.58;5.22;;;17.70;51.00;;;;;;4995049;28;20222;-69
2023/03/09 04:57:17;;;;;;;19.45;4.50;;;17.70;51.00;;;;;;4994958;28;20194;-69
2023/03/09 04:59:44;;;;;;;18.33;4.53;;;17.80;51.10;;;;;;4995334;28;20222;-70
2023/03/09 05:02:13;;;;;;;22.52;4.70;;;17.70;51.00;;;;;;4995077;28;20610;-69
2023/03/09 05:04:40;;;;;;;21.80;4.65;;;17.80;51.10;;;;;;4994869;28;20316;-69
2023/03/09 05:07:07;;;;;;;23.48;4.30;;;17.70;51.10;;;;;;4995198;28;20648;-69
2023/03/09 05:09:34;;;;;;;17.58;5.25;;;17.70;51.10;;;;;;4993528;28;20241;-69
2023/03/09 05:12:01;;;;;;;19.17;4.93;;;17.70;51.10;;;;;;4993554;28;20225;-69
2023/03/09 05:14:30;;;;;;;20.35;5.28;;;17.70;51.10;;;;;;4994752;28;20218;-70
2023/03/09 05:16:57;;;;;;;23.00;4.68;;;17.70;51.00;;;;;;4994086;28;20268;-69
2023/03/09 05:19:26;;;;;;;23.15;5.40;;;17.70;51.10;;;;;;4994889;28;20219;-69
2023/03/09 05:21:53;;;;;;;18.40;4.93;;;17.70;51.10;;;;;;4994636;28;20194;-69
2023/03/09 05:24:20;;;;;;;24.55;5.65;;;17.70;51.10;;;;;;4994934;28;20287;-69
2023/03/09 05:26:47;;;;;;;21.25;5.07;;;17.70;51.20;;;;;;4994677;28;20240;-69
2023/03/09 05:29:14;;;;;;;21.52;5.20;;;17.70;51.20;;;;;;4994536;28;20222;-68
2023/03/09 05:31:41;;;;;;;19.88;4.93;;;17.70;51.20;;;;;;4994425;28;20711;-69
2023/03/09 05:34:08;;;;;;;22.42;5.72;;;17.70;51.20;;;;;;4994903;28;20218;-71
2023/03/09 05:36:37;;;;;;;15.07;4.80;;;17.70;51.20;;;;;;4993426;28;20190;-71
2023/03/09 05:39:04;;;;;;;23.90;4.85;;;17.70;51.20;;;;;;4994203;28;20241;-70
2023/03/09 05:41:31;;;;;;;20.92;4.95;;;17.70;51.20;;;;;;4994498;28;20648;-71
2023/03/09 05:44:00;;;;;;;19.70;5.85;;;17.70;51.30;;;;;;4992929;28;20233;-71
2023/03/09 05:46:27;;;;;;;23.08;5.53;;;17.70;51.20;;;;;;4994316;28;20197;-70
2023/03/09 05:48:54;;;;;;;19.15;4.80;;;17.70;51.30;;;;;;4994046;28;20190;-70
2023/03/09 05:51:21;;;;;;;20.88;4.75;;;17.70;51.30;;;;;;4993957;28;20240;-70
2023/03/09 05:53:50;;;;;;;19.90;5.13;;;17.70;51.30;;;;;;4993978;28;20599;-70
2023/03/09 05:56:17;;;;;;;21.38;5.45;;;17.80;51.30;;;;;;4993851;28;20190;-70
2023/03/09 05:58:44;;;;;;;18.75;4.60;;;17.70;51.20;;;;;;4994133;28;20209;-71
2023/03/09 06:01:21;;;;;;;22.15;4.75;;;17.80;51.30;;;;;;4994179;28;20292;-70
2023/03/09 06:03:50;;;;;;;19.50;5.00;;;17.80;51.30;;;;;;4960309;28;20256;-70
2023/03/09 06:06:17;;;;;;;21.50;4.90;;;17.80;51.20;;;;;;4993930;28;20631;-70
2023/03/09 06:08:44;;;;;;;16.65;5.13;;;17.80;51.10;;;;;;4993732;28;20237;-70
2023/03/09 06:11:14;;;;;;;19.08;4.65;;;17.80;51.00;;;;;;4994005;28;20218;-70
2023/03/09 06:13:41;;;;;;;19.98;4.97;;;17.90;51.10;;;;;;4993899;28;20240;-70
2023/03/09 06:16:11;;;;;;;15.30;4.63;;;17.90;51.00;;;;;;4993544;28;20630;-71
2023/03/09 06:18:38;;;;;;;15.77;4.70;;;17.90;50.90;;;;;;4993545;28;20197;-71
2023/03/09 06:21:07;;;;;;;20.77;4.18;;;17.90;50.80;;;;;;4993494;28;20225;-71
2023/03/09 06:23:35;;;;;;;22.33;4.95;;;17.90;50.80;;;;;;4993677;28;20249;-70
2023/03/09 06:26:04;;;;;;;17.23;4.53;;;17.90;50.80;;;;;;4993764;28;20301;-70
2023/03/09 06:28:33;;;;;;;17.42;4.28;;;17.90;50.70;;;;;;4993202;28;20730;-71
2023/03/09 06:31:00;;;;;;;18.63;4.90;;;18.00;50.80;;;;;;4993439;28;20707;-70
2023/03/09 06:33:27;;;;;;;20.65;5.55;;;18.00;50.70;;;;;;4993235;28;20197;-70
2023/03/09 06:35:54;;;;;;;13.30;4.30;;;18.00;50.70;;;;;;4993680;28;20275;-70
2023/03/09 06:38:24;;;;;;;21.10;4.97;;;18.00;50.60;;;;;;4993461;28;20194;-71
2023/03/09 06:40:54;;;;;;;19.95;4.22;;;18.00;50.60;;;;;;4993478;28;20254;-71
2023/03/09 06:43:21;;;;;;;16.75;4.38;;;18.00;50.60;;;;;;4993340;28;20186;-70
2023/03/09 06:45:50;;;;;;;18.77;4.70;;;18.00;50.50;;;;;;4993138;28;20249;-70
2023/03/09 06:48:17;;;;;;;16.67;4.80;;;18.10;50.60;;;;;;4993318;28;20198;-70
2023/03/09 06:50:45;;;;;;;20.20;5.32;;;18.10;50.50;;;;;;4993396;28;20241;-70
2023/03/09 06:53:12;;;;;;;16.70;4.22;;;18.10;50.50;;;;;;4992972;28;20190;-70
2023/03/09 06:55:39;;;;;;;18.70;4.45;;;18.10;50.50;;;;;;4992779;28;20719;-70
2023/03/09 06:58:07;;;;;;;18.92;4.55;;;18.10;50.50;;;;;;4993265;28;20201;-71
2023/03/09 07:00:37;;;;;;;20.70;5.32;;;18.10;50.50;;;;;;4993286;28;20272;-70
2023/03/09 07:03:06;;;;;;;16.58;4.93;;;18.10;50.50;;;;;;4993450;28;20190;-71
2023/03/09 07:05:34;;;;;;;18.83;5.03;;;18.10;50.50;;;;;;4993137;28;20233;-71
2023/03/09 07:08:01;;;;;;;14.50;4.43;;;18.10;50.40;;;;;;4992511;28;20660;-71
2023/03/09 07:10:28;;;;;;;12.38;4.10;;;18.20;50.50;;;;;;4993094;28;20229;-70
2023/03/09 07:12:55;;;;;;;13.27;4.03;;;18.20;50.50;;;;;;4993119;28;20206;-71
2023/03/09 07:15:22;;;;;;;13.40;4.43;;;18.20;50.40;;;;;;4992858;28;20218;-71
2023/03/09 07:17:49;;;;;;;15.32;4.50;;;18.20;50.40;;;;;;4992978;28;20190;-70
2023/03/09 07:20:18;;;;;;;17.65;4.55;;;18.20;50.40;;;;;;4993060;28;20217;-71
2023/03/09 07:22:45;;;;;;;14.98;4.45;;;18.20;50.40;;;;;;4992984;28;20197;-71
2023/03/09 07:25:13;;;;;;;12.40;3.92;;;18.20;50.40;;;;;;4992470;28;20233;-70
2023/03/09 07:27:40;;;;;;;15.38;4.10;;;18.20;50.40;;;;;;4992925;28;20190;-70
2023/03/09 07:30:09;;;;;;;14.38;4.28;;;18.20;51.00;;;;;;4992957;28;20657;-71
2023/03/09 07:32:36;;;;;;;15.18;3.83;;;18.30;50.50;;;;;;4992562;28;20194;-71
2023/03/09 07:35:03;;;;;;;14.80;4.25;;;18.30;50.50;;;;;;4992946;28;20226;-71
2023/03/09 07:37:32;;;;;;;14.50;4.03;;;18.30;50.40;;;;;;4992416;28;20667;-70
2023/03/09 07:39:59;;;;;;;18.13;4.10;;;18.20;50.40;;;;;;4987255;28;20260;-70
2023/03/09 07:42:26;;;;;;;16.63;4.10;;;18.30;50.40;;;;;;4980182;28;20206;-70
2023/03/09 07:44:54;;;;;;;13.85;4.20;;;18.30;50.40;;;;;;4976722;28;20263;-71
2023/03/09 07:47:21;;;;;;;15.55;4.15;;;18.30;50.30;;;;;;4990735;28;20696;-71
2023/03/09 07:49:49;;;;;;;18.25;4.78;;;18.30;50.30;;;;;;4995688;28;20723;-70
2023/03/09 07:52:17;;;;;;;12.45;3.78;;;18.30;50.40;;;;;;4987375;28;20228;-69
2023/03/09 07:54:45;;;;;;;15.43;4.15;;;18.30;50.40;;;;;;4974967;28;20227;-69
2023/03/09 07:57:13;;;;;;;19.60;4.72;;;18.40;50.50;;;;;;4976160;28;20194;-69
2023/03/09 07:59:40;;;;;;;16.83;3.50;;;18.40;50.50;;;;;;4975981;28;20226;-69
2023/03/09 08:02:07;;;;;;;16.33;4.32;;;18.40;50.40;;;;;;4974615;28;20249;-68
2023/03/09 08:04:36;;;;;;;14.10;3.67;;;18.40;50.40;;;;;;4989342;28;20325;-68
2023/03/09 08:07:03;;;;;;;18.70;3.60;;;18.40;50.40;;;;;;4977023;28;20692;-69
2023/03/09 08:09:30;;;;;;;12.65;3.50;;;18.50;50.80;;;;;;4975980;28;20238;-68
2023/03/09 08:11:59;;;;;;;12.60;3.90;;;18.50;50.40;;;;;;4983019;28;20209;-69
2023/03/09 08:14:27;;;;;;;15.48;3.58;;;18.50;50.40;;;;;;4978216;28;20261;-68
2023/03/09 08:16:54;;;;;;;13.52;4.05;;;18.60;51.00;;;;;;4957547;28;20206;-68
2023/03/09 08:19:21;;;;;;;15.93;4.25;;;18.60;50.40;;;;;;4990453;28;20210;-69
2023/03/09 08:21:49;;;;;;;16.50;4.72;;;18.60;50.30;;;;;;4983881;28;20202;-69
2023/03/09 08:24:17;;;;;;;12.50;3.83;;;18.60;50.30;;;;;;4983317;28;20219;-68
2023/03/09 08:26:45;;;;;;;15.52;3.85;;;18.70;50.40;;;;;;4993866;28;20233;-68
2023/03/09 08:29:14;;;;;;;13.32;3.40;;;18.70;50.30;;;;;;4994533;28;20190;-69
2023/03/09 08:31:42;;;;;;;11.90;3.20;;;18.70;50.30;;;;;;4979730;28;20225;-69
2023/03/09 08:34:09;;;;;;;12.38;3.22;;;18.80;50.40;;;;;;4994019;28;20239;-69
2023/03/09 08:36:37;;;;;;;14.32;3.67;;;18.80;50.70;;;;;;4992874;28;20773;-70
2023/03/09 08:39:04;;;;;;;12.80;3.63;;;18.80;50.50;;;;;;4975759;28;20248;-68
2023/03/09 08:41:34;;;;;;;13.98;3.28;;;18.90;50.70;;;;;;4978081;28;20335;-69
2023/03/09 08:44:02;;;;;;;12.88;3.70;;;18.90;50.60;;;;;;4977624;28;20200;-69
2023/03/09 08:46:36;;;;;;;14.93;3.42;;;18.90;50.40;;;;;;4961819;28;20810;-69
2023/03/09 08:49:06;;;;;;;10.90;3.17;;;18.90;50.60;;;;;;4975145;28;20830;-70
2023/03/09 08:51:36;;;;;;;13.15;3.60;;;19.00;51.20;;;;;;4939800;28;20222;-70
2023/03/09 08:54:05;;;;;;;12.43;3.25;;;19.00;50.50;;;;;;4982160;28;20217;-69
2023/03/09 08:56:37;;;;;;;12.57;3.65;;;19.00;50.50;;;;;;4977229;28;20225;-68
2023/03/09 08:59:07;;;;;;;12.85;3.00;;;19.00;50.50;;;;;;4979236;28;20198;-67
2023/03/09 09:01:48;;;;;;;12.57;3.58;;;19.10;50.60;;;;;;4980290;28;20276;-69
2023/03/09 09:04:18;;;;;;;11.93;3.10;;;19.10;50.60;;;;;;4983657;28;20547;-69
2023/03/09 09:06:47;;;;;;;10.25;3.33;;;19.10;50.60;;;;;;4941918;28;20233;-69
2023/03/09 09:09:16;;;;;;;12.07;3.47;;;19.10;50.60;;;;;;4984329;28;20237;-69
2023/03/09 09:11:47;;;;;;;14.60;3.45;;;19.10;50.50;;;;;;4975170;28;20225;-69
2023/03/09 09:14:24;;;;;;;11.60;3.28;;;19.20;50.60;;;;;;4975596;28;20202;-70
2023/03/09 09:16:55;;;;;;;14.60;3.20;;;19.20;50.60;;;;;;4975456;28;20222;-70
2023/03/09 09:19:29;;;;;;;12.18;3.17;;;19.20;50.60;;;;;;4974986;28;20905;-70
2023/03/09 09:22:09;;;;;;;14.13;2.90;;;19.20;50.60;;;;;;4978200;28;20230;-69
2023/03/09 09:24:38;;;;;;;11.55;3.58;;;19.30;50.90;;;;;;4982720;28;20627;-68
2023/03/09 09:27:06;;;;;;;18.77;3.55;;;19.30;50.80;;;;;;4981050;28;20236;-68
2023/03/09 09:29:33;;;;;;;14.18;2.90;;;19.30;50.90;;;;;;4975053;28;20198;-69
2023/03/09 09:32:03;;;;;;;16.27;3.42;;;19.30;50.80;;;;;;4981103;28;20222;-68
2023/03/09 09:34:34;;;;;;;10.13;3.13;;;19.30;50.70;;;;;;4982679;28;20190;-69
2023/03/09 09:37:02;;;;;;;12.65;3.20;;;19.40;50.80;;;;;;4977194;28;20219;-70
2023/03/09 09:39:31;;;;;;;13.82;3.45;;;19.40;50.80;;;;;;4979683;28;20253;-67
2023/03/09 09:42:02;;;;;;;18.00;3.00;;;19.40;51.40;;;;;;4979634;28;20218;-68
2023/03/09 09:44:33;;;;;;;11.70;3.20;;;19.40;50.80;;;;;;4974366;28;20195;-70
2023/03/09 09:47:04;;;;;;;11.60;3.53;;;19.40;50.80;;;;;;4973624;28;20712;-70
2023/03/09 09:49:41;;;;;;;12.15;3.20;;;19.40;50.80;;;;;;4972863;28;20195;-69
2023/03/09 09:52:44;;;;;;;12.38;3.00;;;19.40;50.80;;;;;;4982992;28;20250;-69
2023/03/09 09:55:19;;;;;;;19.17;4.28;;;19.40;50.50;;;;;;4971476;28;20264;-68
2023/03/09 09:57:49;;;;;;;15.20;4.05;;;19.40;50.40;;;;;;4984371;28;20197;-69
2023/03/09 10:00:21;;;;;;;15.27;3.83;;;19.40;50.40;;;;;;4982907;28;20226;-70
2023/03/09 10:03:09;;;;;;;18.70;4.53;;;19.40;50.40;;;;;;4978957;28;20202;-70
2023/03/09 10:05:44;;;;;;;19.58;4.43;;;19.40;50.80;;;;;;4972929;28;20592;-69
2023/03/09 10:08:30;;;;;;;14.27;3.50;;;19.40;50.70;;;;;;4968091;28;20261;-69
2023/03/09 10:11:04;;;;;;;14.95;3.78;;;19.40;50.80;;;;;;4974413;28;20265;-69
2023/03/09 10:13:36;;;;;;;14.88;3.85;;;19.40;51.40;;;;;;4980156;28;20225;-69
2023/03/09 10:16:08;;;;;;;15.70;4.05;;;19.50;51.70;;;;;;4988109;28;20230;-69
2023/03/09 10:18:41;;;;;;;16.65;4.55;;;19.50;51.50;;;;;;4976004;28;20258;-69
2023/03/09 10:21:17;;;;;;;17.70;3.75;;;19.40;51.20;;;;;;4988492;28;20214;-68
2023/03/09 10:23:45;;;;;;;12.05;3.35;;;19.50;51.30;;;;;;4981423;28;20201;-69
2023/03/09 10:26:25;;;;;;;16.42;3.88;;;19.40;51.10;;;;;;4974199;28;20882;-70
2023/03/09 10:28:56;;;;;;;14.73;3.60;;;19.50;51.10;;;;;;4968842;28;20203;-70
2023/03/09 10:31:31;;;;;;;15.90;3.55;;;19.50;51.00;;;;;;4981617;28;20289;-70
2023/03/09 10:34:12;;;;;;;15.40;3.60;;;19.50;50.90;;;;;;4978148;28;20789;-70
2023/03/09 10:36:47;;;;;;;16.50;3.72;;;19.50;50.90;;;;;;4972890;28;20222;-69
2023/03/09 10:39:17;;;;;;;17.25;3.80;;;19.50;50.80;;;;;;4963936;28;20209;-70
2023/03/09 10:41:44;;;;;;;25.77;3.80;;;19.50;50.90;;;;;;4979336;28;20227;-70
2023/03/09 10:44:17;;;;;;;17.42;4.13;;;19.50;50.90;;;;;;4979516;28;20213;-69
2023/03/09 10:46:58;;;;;;;18.55;4.07;;;19.50;50.80;;;;;;4976838;28;20971;-70
2023/03/09 10:49:28;;;;;;;20.80;4.32;;;19.50;50.60;;;;;;4971581;28;20241;-70
2023/03/09 10:52:00;;;;;;;20.60;4.13;;;19.60;50.70;;;;;;4973646;28;20694;-70
2023/03/09 10:54:33;;;;;;;16.42;3.78;;;19.60;50.60;;;;;;4972352;28;20641;-70
2023/03/09 10:57:00;;;;;;;14.00;3.80;;;19.60;51.20;;;;;;4976911;28;20277;-70
2023/03/09 10:59:30;;;;;;;19.98;3.60;;;19.60;50.60;;;;;;4971259;28;20217;-70
2023/03/09 11:01:59;;;;;;;20.27;4.28;;;19.60;50.60;;;;;;4970581;28;20235;-70
2023/03/09 11:04:33;;;;;;;29.77;4.32;;;19.60;50.60;;;;;;4970583;28;20214;-70
2023/03/09 11:07:01;;;;;;;12.30;3.50;;;19.60;50.90;;;;;;4969365;28;20737;-70
2023/03/09 11:09:32;;;;;;;11.90;3.50;;;19.60;50.90;;;;;;4974441;28;20237;-70
2023/03/09 11:12:15;;;;;;;17.73;3.63;;;19.60;50.60;;;;;;4966720;28;21362;-70
2023/03/09 11:14:46;;;;;;;17.42;4.05;;;19.60;50.90;;;;;;4973643;28;21015;-70
2023/03/09 11:17:44;;;;;;;14.18;3.85;;;19.60;50.80;;;;;;4976182;28;20225;-70
2023/03/09 11:20:31;;;;;;;14.35;3.85;;;19.60;50.60;;;;;;4917028;29;20220;-70
2023/03/09 11:23:15;;;;;;;21.38;4.00;;;19.60;50.60;;;;;;4910333;29;20237;-69
2023/03/09 11:26:02;;;;;;;16.33;3.00;;;19.60;50.60;;;;;;4918299;29;20245;-69
2023/03/09 11:28:41;;;;;;;12.73;3.55;;;19.60;50.60;;;;;;4915507;29;20232;-70
2023/03/09 11:31:13;;;;;;;14.13;3.45;;;19.50;50.50;;;;;;4909786;29;20667;-71
2023/03/09 11:33:41;;;;;;;13.57;3.30;;;19.50;50.50;;;;;;4914866;29;20225;-70
2023/03/09 11:36:15;;;;;;;19.85;3.83;;;19.50;50.50;;;;;;4907682;29;20286;-70
2023/03/09 11:38:45;;;;;;;15.07;3.58;;;19.50;50.40;;;;;;4912189;29;20292;-70
2023/03/09 11:41:19;;;;;;;16.58;4.40;;;19.50;50.40;;;;;;4915598;29;20212;-69
2023/03/09 11:43:51;;;;;;;15.82;3.95;;;19.50;50.40;;;;;;4913700;29;20293;-69
2023/03/09 11:46:21;;;;;;;18.95;4.70;;;19.50;50.40;;;;;;4916267;29;20273;-70
2023/03/09 11:48:52;;;;;;;21.30;4.57;;;19.50;50.30;;;;;;4916428;29;20229;-70
2023/03/09 11:51:26;;;;;;;15.60;4.20;;;19.50;50.30;;;;;;4914745;29;21028;-70
2023/03/09 11:54:02;;;;;;;13.60;3.75;;;19.40;50.10;;;;;;4932126;28;20221;-70
2023/03/09 11:56:34;;;;;;;13.60;4.18;;;19.50;50.20;;;;;;4976987;28;20265;-70
2023/03/09 11:59:08;;;;;;;17.05;4.07;;;19.50;50.20;;;;;;4976188;28;20712;-70
2023/03/09 12:01:42;;;;;;;15.57;3.80;;;19.50;50.20;;;;;;4974266;28;20809;-70
2023/03/09 12:04:09;;;;;;;18.55;4.13;;;19.40;50.10;;;;;;4976430;28;20198;-70
2023/03/09 12:06:57;;;;;;;15.90;3.70;;;19.40;50.00;;;;;;4978303;28;20649;-69
2023/03/09 12:09:34;;;;;;;12.02;3.75;;;19.50;50.10;;;;;;4945822;28;20226;-70
2023/03/09 12:12:07;;;;;;;16.10;3.85;;;19.50;50.10;;;;;;4976400;28;20366;-70
2023/03/09 12:14:38;;;;;;;15.15;4.00;;;19.50;50.10;;;;;;4975602;28;20278;-69
2023/03/09 12:17:13;;;;;;;16.25;3.75;;;19.40;50.00;;;;;;4976864;28;20227;-69
2023/03/09 12:19:47;;;;;;;11.35;3.47;;;19.50;50.10;;;;;;4974853;28;20571;-70
2023/03/09 12:22:20;;;;;;;13.25;4.10;;;19.50;50.30;;;;;;4975966;28;20294;-69
2023/03/09 12:24:55;;;;;;;9.90;3.35;;;19.50;50.20;;;;;;4973600;28;20699;-70
2023/03/09 12:27:25;;;;;;;12.18;4.00;;;19.50;50.10;;;;;;4976875;28;20233;-70
2023/03/09 12:29:55;;;;;;;15.38;4.00;;;19.50;50.10;;;;;;4959016;28;20261;-70
2023/03/09 12:32:42;;;;;;;12.65;3.20;;;19.50;50.10;;;;;;4973153;28;20652;-70
2023/03/09 12:35:29;;;;;;;15.70;3.80;;;19.50;50.10;;;;;;4970293;28;20254;-70
2023/03/09 12:38:14;;;;;;;13.32;3.53;;;19.50;50.10;;;;;;4967954;28;20297;-70
2023/03/09 12:40:44;;;;;;;15.50;3.63;;;19.50;50.50;;;;;;4971448;28;20214;-70
2023/03/09 12:43:34;;;;;;;16.52;3.72;;;19.50;50.50;;;;;;4977064;28;20226;-69
2023/03/09 12:46:35;;;;;;;16.58;3.70;;;19.50;50.50;;;;;;4970828;28;20270;-70
2023/03/09 12:49:02;;;;;;;16.10;4.00;;;19.50;50.50;;;;;;4970983;28;20231;-70